SWA1078 KMAF-KHOU
Flight info
| Callsign | SWA1078 |
|---|---|
| Flight time | 1h 4m |
| Altitude | 39000 |
| Route | SJT DILLO KIDDZ5 |
| Aircraft | B737/M-SDE2E3FGHIRWXY/LB1 |
Departure
| Time | 2026-04-30 21:10 |
|---|---|
| Airport | Midland International Air and Space Port (KMAF) |
Arrival
| Time | 2026-04-30 22:14 |
|---|---|
| Airport | William P. Hobby Airport (KHOU) |
| Time | Latitude | Longitude | Altitude | Speed | Heading |
|---|---|---|---|---|---|
| 2026-04-30 20:55 | 31.93695 | -102.20696 | 2867 ft | 0 kts | 263° |
| 2026-04-30 21:04 | 31.93695 | -102.20695 | 2867 ft | 1 kts | 263° |
| 2026-04-30 21:05 | 31.93697 | -102.20672 | 2895 ft | 4 kts | 264° |
| 2026-04-30 21:05 | 31.93700 | -102.20641 | 2867 ft | 4 kts | 262° |
| 2026-04-30 21:05 | 31.93705 | -102.20610 | 2868 ft | 4 kts | 259° |
| 2026-04-30 21:05 | 31.93710 | -102.20579 | 2868 ft | 4 kts | 254° |
| 2026-04-30 21:06 | 31.93719 | -102.20551 | 2867 ft | 0 kts | 238° |
| 2026-04-30 21:08 | 31.93708 | -102.20555 | 2868 ft | 6 kts | 175° |
| 2026-04-30 21:08 | 31.93587 | -102.20507 | 2866 ft | 26 kts | 163° |
| 2026-04-30 21:08 | 31.93387 | -102.20475 | 2867 ft | 28 kts | 174° |
| 2026-04-30 21:08 | 31.93237 | -102.20426 | 2865 ft | 20 kts | 133° |
| 2026-04-30 21:09 | 31.93239 | -102.20297 | 2863 ft | 19 kts | 39° |
| 2026-04-30 21:09 | 31.93303 | -102.20283 | 2862 ft | 0 kts | 353° |
| 2026-04-30 21:09 | 31.93360 | -102.20291 | 2862 ft | 36 kts | 355° |
| 2026-04-30 21:10 | 31.93956 | -102.20348 | 2868 ft | 132 kts | 356° |
| 2026-04-30 21:10 | 31.95037 | -102.20490 | 3458 ft | 167 kts | 355° |
| 2026-04-30 21:10 | 31.96217 | -102.20694 | 4664 ft | 172 kts | 359° |
| 2026-04-30 21:10 | 31.97428 | -102.20543 | 5598 ft | 190 kts | 18° |
| 2026-04-30 21:11 | 31.98596 | -102.19566 | 6077 ft | 232 kts | 51° |
| 2026-04-30 21:11 | 31.99298 | -102.17677 | 6512 ft | 268 kts | 77° |
| 2026-04-30 21:11 | 31.99275 | -102.15465 | 7446 ft | 278 kts | 105° |
| 2026-04-30 21:11 | 31.98288 | -102.13415 | 8194 ft | 297 kts | 134° |
| 2026-04-30 21:12 | 31.96845 | -102.11642 | 9379 ft | 302 kts | 137° |
| 2026-04-30 21:12 | 31.95348 | -102.09886 | 10531 ft | 309 kts | 138° |
| 2026-04-30 21:12 | 31.93826 | -102.07966 | 11231 ft | 331 kts | 134° |
| 2026-04-30 21:12 | 31.92383 | -102.05782 | 12148 ft | 344 kts | 129° |
| 2026-04-30 21:13 | 31.91065 | -102.03375 | 13169 ft | 355 kts | 126° |
| 2026-04-30 21:13 | 31.89864 | -102.00793 | 14174 ft | 364 kts | 122° |
| 2026-04-30 21:13 | 31.88753 | -101.98075 | 15091 ft | 373 kts | 120° |
| 2026-04-30 21:13 | 31.87697 | -101.95242 | 16024 ft | 382 kts | 118° |
| 2026-04-30 21:14 | 31.86676 | -101.92331 | 16952 ft | 389 kts | 117° |
| 2026-04-30 21:14 | 31.85664 | -101.89339 | 17852 ft | 398 kts | 117° |
| 2026-04-30 21:14 | 31.84649 | -101.86279 | 18663 ft | 406 kts | 116° |
| 2026-04-30 21:14 | 31.83638 | -101.83201 | 19483 ft | 411 kts | 116° |
| 2026-04-30 21:15 | 31.82593 | -101.80010 | 20369 ft | 415 kts | 116° |
| 2026-04-30 21:15 | 31.81549 | -101.76820 | 21223 ft | 420 kts | 116° |
| 2026-04-30 21:15 | 31.80505 | -101.73636 | 22043 ft | 426 kts | 116° |
| 2026-04-30 21:15 | 31.79413 | -101.70318 | 22726 ft | 435 kts | 116° |
| 2026-04-30 21:16 | 31.78324 | -101.67015 | 23432 ft | 442 kts | 116° |
| 2026-04-30 21:16 | 31.77205 | -101.63624 | 24073 ft | 448 kts | 116° |
| 2026-04-30 21:16 | 31.76071 | -101.60189 | 24714 ft | 454 kts | 116° |
| 2026-04-30 21:16 | 31.74921 | -101.56710 | 25333 ft | 460 kts | 116° |
| 2026-04-30 21:17 | 31.73753 | -101.53185 | 25946 ft | 466 kts | 116° |
| 2026-04-30 21:17 | 31.72567 | -101.49607 | 26540 ft | 472 kts | 116° |
| 2026-04-30 21:17 | 31.71369 | -101.45995 | 27120 ft | 478 kts | 116° |
| 2026-04-30 21:17 | 31.70151 | -101.42330 | 27703 ft | 484 kts | 116° |
| 2026-04-30 21:18 | 31.68920 | -101.38629 | 28260 ft | 490 kts | 117° |
| 2026-04-30 21:18 | 31.67671 | -101.34878 | 28807 ft | 496 kts | 117° |
| 2026-04-30 21:18 | 31.66408 | -101.31089 | 29336 ft | 501 kts | 117° |
| 2026-04-30 21:18 | 31.65130 | -101.27258 | 29860 ft | 507 kts | 117° |
| 2026-04-30 21:19 | 31.63835 | -101.23383 | 30321 ft | 513 kts | 117° |
| 2026-04-30 21:19 | 31.62528 | -101.19472 | 30838 ft | 516 kts | 117° |
| 2026-04-30 21:19 | 31.61216 | -101.15551 | 31395 ft | 517 kts | 117° |
| 2026-04-30 21:19 | 31.59898 | -101.11614 | 31900 ft | 520 kts | 117° |
| 2026-04-30 21:20 | 31.58571 | -101.07659 | 32332 ft | 522 kts | 117° |
| 2026-04-30 21:20 | 31.57239 | -101.03693 | 32840 ft | 523 kts | 117° |
| 2026-04-30 21:20 | 31.55902 | -100.99719 | 33350 ft | 524 kts | 117° |
| 2026-04-30 21:20 | 31.54565 | -100.95747 | 33922 ft | 523 kts | 117° |
| 2026-04-30 21:21 | 31.53234 | -100.91796 | 34452 ft | 521 kts | 117° |
| 2026-04-30 21:21 | 31.51905 | -100.87856 | 34946 ft | 519 kts | 117° |
| 2026-04-30 21:21 | 31.49244 | -100.79996 | 35817 ft | 519 kts | 117° |
| 2026-04-30 21:22 | 31.47913 | -100.76069 | 36265 ft | 518 kts | 117° |
| 2026-04-30 21:22 | 31.43927 | -100.64336 | 37574 ft | 516 kts | 118° |
| 2026-04-30 21:23 | 31.42598 | -100.60432 | 37984 ft | 516 kts | 118° |
| 2026-04-30 21:23 | 31.41270 | -100.56537 | 38436 ft | 514 kts | 118° |
| 2026-04-30 21:23 | 31.38624 | -100.48786 | 38999 ft | 515 kts | 117° |
| 2026-04-30 21:24 | 31.35970 | -100.41014 | 38980 ft | 510 kts | 117° |
| 2026-04-30 21:24 | 31.33366 | -100.33334 | 38992 ft | 507 kts | 117° |
| 2026-04-30 21:25 | 31.29903 | -100.23150 | 38951 ft | 506 kts | 117° |
| 2026-04-30 21:26 | 31.25985 | -100.11677 | 38949 ft | 507 kts | 117° |
| 2026-04-30 21:27 | 31.22049 | -100.00194 | 38943 ft | 508 kts | 117° |
| 2026-04-30 21:27 | 31.19418 | -99.92536 | 38943 ft | 508 kts | 117° |
| 2026-04-30 21:28 | 31.15460 | -99.81048 | 38947 ft | 508 kts | 117° |
| 2026-04-30 21:29 | 31.11494 | -99.69574 | 38928 ft | 507 kts | 117° |
| 2026-04-30 21:30 | 31.04904 | -99.50599 | 38932 ft | 503 kts | 117° |
| 2026-04-30 21:31 | 30.98328 | -99.31774 | 38951 ft | 503 kts | 117° |
| 2026-04-30 21:32 | 30.94360 | -99.20459 | 38941 ft | 502 kts | 117° |
| 2026-04-30 21:32 | 30.91711 | -99.12929 | 38898 ft | 502 kts | 117° |
| 2026-04-30 21:33 | 30.87732 | -99.01648 | 38925 ft | 503 kts | 116° |
| 2026-04-30 21:34 | 30.85072 | -98.94127 | 38940 ft | 502 kts | 116° |
| 2026-04-30 21:34 | 30.81086 | -98.82881 | 38961 ft | 501 kts | 116° |
| 2026-04-30 21:35 | 30.78994 | -98.75142 | 38965 ft | 506 kts | 101° |
| 2026-04-30 21:35 | 30.77990 | -98.67041 | 38985 ft | 506 kts | 98° |
| 2026-04-30 21:36 | 30.77046 | -98.58940 | 38977 ft | 505 kts | 99° |
| 2026-04-30 21:37 | 30.74991 | -98.42794 | 38955 ft | 504 kts | 100° |
| 2026-04-30 21:37 | 30.73936 | -98.34735 | 38963 ft | 504 kts | 100° |
| 2026-04-30 21:38 | 30.72879 | -98.26674 | 38966 ft | 505 kts | 100° |
| 2026-04-30 21:38 | 30.71824 | -98.18649 | 38966 ft | 506 kts | 100° |
| 2026-04-30 21:39 | 30.71291 | -98.14601 | 38593 ft | 509 kts | 100° |
| 2026-04-30 21:39 | 30.70755 | -98.10547 | 38014 ft | 507 kts | 100° |
| 2026-04-30 21:39 | 30.70219 | -98.06504 | 37437 ft | 505 kts | 100° |
| 2026-04-30 21:39 | 30.69684 | -98.02479 | 36897 ft | 503 kts | 100° |
| 2026-04-30 21:40 | 30.69147 | -97.98467 | 36278 ft | 503 kts | 100° |
| 2026-04-30 21:40 | 30.68609 | -97.94475 | 35889 ft | 498 kts | 100° |
| 2026-04-30 21:40 | 30.68072 | -97.90512 | 35451 ft | 495 kts | 100° |
| 2026-04-30 21:40 | 30.67539 | -97.86589 | 35051 ft | 492 kts | 100° |
| 2026-04-30 21:41 | 30.67006 | -97.82667 | 34631 ft | 489 kts | 100° |
| 2026-04-30 21:41 | 30.66475 | -97.78771 | 34189 ft | 488 kts | 100° |
| 2026-04-30 21:41 | 30.65946 | -97.74894 | 33744 ft | 485 kts | 100° |
| 2026-04-30 21:41 | 30.65418 | -97.71032 | 33287 ft | 483 kts | 100° |
| 2026-04-30 21:42 | 30.64892 | -97.67198 | 32862 ft | 479 kts | 100° |
| 2026-04-30 21:42 | 30.64370 | -97.63390 | 32451 ft | 476 kts | 100° |
| 2026-04-30 21:42 | 30.63849 | -97.59602 | 32042 ft | 473 kts | 100° |
| 2026-04-30 21:42 | 30.63331 | -97.55848 | 31645 ft | 470 kts | 100° |
| 2026-04-30 21:43 | 30.62814 | -97.52111 | 31249 ft | 467 kts | 100° |
| 2026-04-30 21:43 | 30.62300 | -97.48404 | 30857 ft | 465 kts | 100° |
| 2026-04-30 21:43 | 30.61787 | -97.44704 | 30453 ft | 463 kts | 100° |
| 2026-04-30 21:43 | 30.61274 | -97.41019 | 30059 ft | 461 kts | 101° |
| 2026-04-30 21:44 | 30.60763 | -97.37352 | 29603 ft | 459 kts | 101° |
| 2026-04-30 21:44 | 30.60255 | -97.33717 | 29170 ft | 455 kts | 101° |
| 2026-04-30 21:44 | 30.59751 | -97.30114 | 28733 ft | 451 kts | 101° |
| 2026-04-30 21:44 | 30.59249 | -97.26535 | 28304 ft | 447 kts | 101° |
| 2026-04-30 21:45 | 30.58751 | -97.22992 | 27887 ft | 443 kts | 101° |
| 2026-04-30 21:45 | 30.58255 | -97.19476 | 27473 ft | 440 kts | 101° |
| 2026-04-30 21:45 | 30.57762 | -97.15982 | 27067 ft | 437 kts | 101° |
| 2026-04-30 21:45 | 30.57272 | -97.12521 | 26655 ft | 433 kts | 101° |
| 2026-04-30 21:46 | 30.56785 | -97.09082 | 26252 ft | 430 kts | 101° |
| 2026-04-30 21:46 | 30.56276 | -97.05678 | 25841 ft | 427 kts | 104° |
| 2026-04-30 21:46 | 30.55512 | -97.02350 | 25392 ft | 427 kts | 110° |
| 2026-04-30 21:46 | 30.54596 | -96.99070 | 24906 ft | 428 kts | 111° |
| 2026-04-30 21:47 | 30.53650 | -96.95805 | 24457 ft | 426 kts | 111° |
| 2026-04-30 21:47 | 30.52724 | -96.92548 | 23988 ft | 425 kts | 111° |
| 2026-04-30 21:47 | 30.51823 | -96.89283 | 23532 ft | 424 kts | 110° |
| 2026-04-30 21:47 | 30.50946 | -96.86029 | 22992 ft | 422 kts | 110° |
| 2026-04-30 21:48 | 30.50080 | -96.82793 | 22520 ft | 418 kts | 110° |
| 2026-04-30 21:48 | 30.49221 | -96.79584 | 22059 ft | 415 kts | 110° |
| 2026-04-30 21:48 | 30.48361 | -96.76412 | 21600 ft | 410 kts | 110° |
| 2026-04-30 21:48 | 30.47498 | -96.73280 | 21172 ft | 407 kts | 110° |
| 2026-04-30 21:49 | 30.46637 | -96.70175 | 20752 ft | 403 kts | 110° |
| 2026-04-30 21:49 | 30.45784 | -96.67095 | 20318 ft | 399 kts | 110° |
| 2026-04-30 21:49 | 30.44940 | -96.64044 | 19896 ft | 396 kts | 110° |
| 2026-04-30 21:49 | 30.44102 | -96.61014 | 19473 ft | 393 kts | 110° |
| 2026-04-30 21:50 | 30.43271 | -96.58010 | 19060 ft | 390 kts | 111° |
| 2026-04-30 21:50 | 30.42350 | -96.55073 | 18598 ft | 384 kts | 122° |
| 2026-04-30 21:50 | 30.40926 | -96.52508 | 18225 ft | 375 kts | 130° |
| 2026-04-30 21:50 | 30.39426 | -96.50038 | 17745 ft | 373 kts | 131° |
| 2026-04-30 21:51 | 30.37936 | -96.47606 | 17342 ft | 368 kts | 131° |
| 2026-04-30 21:51 | 30.36477 | -96.45205 | 17032 ft | 361 kts | 130° |
| 2026-04-30 21:51 | 30.35046 | -96.42830 | 16641 ft | 357 kts | 130° |
| 2026-04-30 21:51 | 30.33638 | -96.40479 | 16272 ft | 353 kts | 130° |
| 2026-04-30 21:52 | 30.32251 | -96.38156 | 15854 ft | 349 kts | 130° |
| 2026-04-30 21:52 | 30.30880 | -96.35857 | 15481 ft | 345 kts | 130° |
| 2026-04-30 21:52 | 30.29541 | -96.33609 | 15114 ft | 342 kts | 130° |
| 2026-04-30 21:52 | 30.28199 | -96.31359 | 14750 ft | 338 kts | 130° |
| 2026-04-30 21:53 | 30.26873 | -96.29134 | 14384 ft | 334 kts | 130° |
| 2026-04-30 21:53 | 30.25560 | -96.26933 | 14023 ft | 331 kts | 130° |
| 2026-04-30 21:53 | 30.24256 | -96.24750 | 13621 ft | 328 kts | 130° |
| 2026-04-30 21:53 | 30.22954 | -96.22610 | 13158 ft | 321 kts | 135° |
| 2026-04-30 21:54 | 30.21314 | -96.20985 | 12783 ft | 304 kts | 156° |
| 2026-04-30 21:54 | 30.19450 | -96.19930 | 12476 ft | 295 kts | 162° |
| 2026-04-30 21:54 | 30.17587 | -96.18973 | 12153 ft | 292 kts | 161° |
| 2026-04-30 21:54 | 30.15739 | -96.18021 | 11879 ft | 288 kts | 161° |
| 2026-04-30 21:55 | 30.13940 | -96.17079 | 11831 ft | 282 kts | 161° |
| 2026-04-30 21:55 | 30.12149 | -96.16130 | 11771 ft | 286 kts | 160° |
| 2026-04-30 21:55 | 30.10323 | -96.15158 | 11715 ft | 292 kts | 160° |
| 2026-04-30 21:55 | 30.08478 | -96.14172 | 11666 ft | 292 kts | 160° |
| 2026-04-30 21:56 | 30.06636 | -96.13186 | 11608 ft | 291 kts | 160° |
| 2026-04-30 21:56 | 30.04814 | -96.12183 | 11553 ft | 289 kts | 159° |
| 2026-04-30 21:56 | 30.03019 | -96.11151 | 11515 ft | 288 kts | 158° |
| 2026-04-30 21:56 | 30.01232 | -96.10118 | 11484 ft | 286 kts | 158° |
| 2026-04-30 21:57 | 29.99456 | -96.09097 | 11445 ft | 285 kts | 158° |
| 2026-04-30 21:57 | 29.97682 | -96.08079 | 11404 ft | 285 kts | 158° |
| 2026-04-30 21:57 | 29.95903 | -96.07059 | 11365 ft | 288 kts | 158° |
| 2026-04-30 21:57 | 29.94097 | -96.06025 | 11323 ft | 292 kts | 158° |
| 2026-04-30 21:58 | 29.92273 | -96.04979 | 11281 ft | 292 kts | 158° |
| 2026-04-30 21:58 | 29.90457 | -96.03938 | 11235 ft | 291 kts | 158° |
| 2026-04-30 21:58 | 29.88648 | -96.02902 | 11189 ft | 290 kts | 158° |
| 2026-04-30 21:58 | 29.86845 | -96.01870 | 11148 ft | 289 kts | 158° |
| 2026-04-30 21:59 | 29.85068 | -96.00854 | 11092 ft | 288 kts | 158° |
| 2026-04-30 21:59 | 29.83273 | -95.99829 | 11040 ft | 287 kts | 158° |
| 2026-04-30 21:59 | 29.81491 | -95.98749 | 10890 ft | 292 kts | 154° |
| 2026-04-30 22:00 | 29.77963 | -95.96394 | 10539 ft | 290 kts | 153° |
| 2026-04-30 22:00 | 29.74532 | -95.94117 | 10185 ft | 280 kts | 153° |
| 2026-04-30 22:00 | 29.72852 | -95.93011 | 10006 ft | 277 kts | 153° |
| 2026-04-30 22:01 | 29.71182 | -95.91926 | 9797 ft | 274 kts | 153° |
| 2026-04-30 22:01 | 29.69526 | -95.90856 | 9564 ft | 272 kts | 153° |
| 2026-04-30 22:01 | 29.67883 | -95.89794 | 9341 ft | 270 kts | 154° |
| 2026-04-30 22:01 | 29.66255 | -95.88742 | 9120 ft | 268 kts | 154° |
| 2026-04-30 22:02 | 29.64730 | -95.87513 | 8894 ft | 271 kts | 137° |
| 2026-04-30 22:02 | 29.63490 | -95.85888 | 8704 ft | 271 kts | 133° |
| 2026-04-30 22:02 | 29.62282 | -95.84220 | 8464 ft | 271 kts | 133° |
| 2026-04-30 22:02 | 29.61077 | -95.82554 | 8255 ft | 271 kts | 133° |
| 2026-04-30 22:03 | 29.59865 | -95.80888 | 8040 ft | 271 kts | 133° |
| 2026-04-30 22:03 | 29.58648 | -95.79226 | 7836 ft | 271 kts | 133° |
| 2026-04-30 22:03 | 29.57430 | -95.77572 | 7634 ft | 272 kts | 133° |
| 2026-04-30 22:03 | 29.56205 | -95.75912 | 7426 ft | 273 kts | 133° |
| 2026-04-30 22:04 | 29.54975 | -95.74249 | 7198 ft | 271 kts | 132° |
| 2026-04-30 22:04 | 29.53763 | -95.72614 | 6985 ft | 266 kts | 132° |
| 2026-04-30 22:04 | 29.51393 | -95.69419 | 6567 ft | 258 kts | 132° |
| 2026-04-30 22:05 | 29.50242 | -95.67871 | 6373 ft | 252 kts | 131° |
| 2026-04-30 22:05 | 29.49131 | -95.66375 | 6156 ft | 242 kts | 131° |
| 2026-04-30 22:05 | 29.48187 | -95.64841 | 5925 ft | 233 kts | 112° |
| 2026-04-30 22:05 | 29.47846 | -95.63062 | 5759 ft | 226 kts | 98° |
| 2026-04-30 22:06 | 29.47707 | -95.61265 | 5566 ft | 227 kts | 97° |
| 2026-04-30 22:06 | 29.47464 | -95.57620 | 5134 ft | 229 kts | 96° |
| 2026-04-30 22:06 | 29.47338 | -95.55823 | 4922 ft | 223 kts | 96° |
| 2026-04-30 22:07 | 29.47212 | -95.54102 | 4740 ft | 213 kts | 95° |
| 2026-04-30 22:07 | 29.47089 | -95.52461 | 4547 ft | 200 kts | 97° |
| 2026-04-30 22:07 | 29.46973 | -95.50921 | 4355 ft | 187 kts | 97° |
| 2026-04-30 22:07 | 29.46859 | -95.49433 | 4189 ft | 188 kts | 96° |
| 2026-04-30 22:08 | 29.46921 | -95.47958 | 3977 ft | 186 kts | 73° |
| 2026-04-30 22:08 | 29.47496 | -95.46678 | 3818 ft | 177 kts | 54° |
| 2026-04-30 22:08 | 29.48327 | -95.45674 | 3643 ft | 171 kts | 46° |
| 2026-04-30 22:08 | 29.49191 | -95.44760 | 3463 ft | 168 kts | 43° |
| 2026-04-30 22:09 | 29.50063 | -95.43867 | 3322 ft | 168 kts | 44° |
| 2026-04-30 22:09 | 29.50912 | -95.42956 | 3135 ft | 166 kts | 45° |
| 2026-04-30 22:09 | 29.51739 | -95.42049 | 2961 ft | 165 kts | 45° |
| 2026-04-30 22:09 | 29.52578 | -95.41120 | 2824 ft | 171 kts | 45° |
| 2026-04-30 22:10 | 29.53415 | -95.40191 | 2608 ft | 164 kts | 45° |
| 2026-04-30 22:10 | 29.54211 | -95.39306 | 2404 ft | 155 kts | 45° |
| 2026-04-30 22:10 | 29.54954 | -95.38483 | 2265 ft | 144 kts | 47° |
| 2026-04-30 22:10 | 29.55675 | -95.37680 | 2093 ft | 141 kts | 48° |
| 2026-04-30 22:11 | 29.57021 | -95.36184 | 1877 ft | 136 kts | 45° |
| 2026-04-30 22:11 | 29.57681 | -95.35427 | 1732 ft | 136 kts | 47° |
| 2026-04-30 22:11 | 29.58370 | -95.34693 | 1591 ft | 134 kts | 46° |
| 2026-04-30 22:12 | 29.59051 | -95.33944 | 1377 ft | 136 kts | 45° |
| 2026-04-30 22:12 | 29.59708 | -95.33173 | 1273 ft | 133 kts | 50° |
| 2026-04-30 22:12 | 29.60376 | -95.32432 | 1088 ft | 134 kts | 45° |
| 2026-04-30 22:12 | 29.61044 | -95.31707 | 847 ft | 131 kts | 46° |
| 2026-04-30 22:13 | 29.61680 | -95.30986 | 674 ft | 125 kts | 43° |
| 2026-04-30 22:13 | 29.62306 | -95.30311 | 432 ft | 123 kts | 39° |
| 2026-04-30 22:13 | 29.62902 | -95.29611 | 324 ft | 122 kts | 41° |
| 2026-04-30 22:13 | 29.63515 | -95.28965 | 198 ft | 118 kts | 40° |
| 2026-04-30 22:14 | 29.64089 | -95.28333 | 59 ft | 110 kts | 42° |
| 2026-04-30 22:14 | 29.64540 | -95.27840 | 48 ft | 78 kts | 44° |
| 2026-04-30 22:14 | 29.64816 | -95.27534 | 49 ft | 26 kts | 36° |
| 2026-04-30 22:14 | 29.64927 | -95.27521 | 51 ft | 8 kts | 359° |
| 2026-04-30 22:15 | 29.64969 | -95.27522 | 51 ft | 6 kts | 359° |
| 2026-04-30 22:15 | 29.65009 | -95.27522 | 51 ft | 4 kts | 359° |
| 2026-04-30 22:15 | 29.65011 | -95.27522 | 51 ft | 0 kts | 359° |
| 2026-04-30 22:15 | 29.65017 | -95.27522 | 51 ft | 7 kts | 359° |
| 2026-04-30 22:16 | 29.65090 | -95.27552 | 51 ft | 14 kts | 300° |
| 2026-04-30 22:16 | 29.65101 | -95.27669 | 51 ft | 16 kts | 268° |
| 2026-04-30 22:17 | 29.65217 | -95.28020 | 49 ft | 17 kts | 336° |
| 2026-04-30 22:17 | 29.65323 | -95.27913 | 51 ft | 15 kts | 69° |
| 2026-04-30 22:17 | 29.65374 | -95.27741 | 51 ft | 12 kts | 111° |
| 2026-04-30 22:18 | 29.65347 | -95.27724 | 51 ft | 2 kts | 177° |
| 2026-04-30 22:18 | 29.65333 | -95.27724 | 51 ft | 0 kts | 177° |